Time;durP1;ratioP1;P1;durP2;ratioP2;P2;SDS_P1;SDS_P2;PMS_P1;PMS_P2;Temp;Humidity;BMP_temperature;BMP_pressure;BME280_temperature;BME280_humidity;BME280_pressure;Samples;Min_cycle;Max_cycle;Signal;HPM_P1;HPM_P2
2022/08/28 00:00:33;;;;;;;3.05;1.45;;;;;;;;;;4900174;29;20051;-80
2022/08/28 00:02:59;;;;;;;8.43;1.60;;;;;;;;;;4900247;29;20060;-77
2022/08/28 00:05:28;;;;;;;8.57;2.47;;;;;;;;;;4899832;29;20032;-79
2022/08/28 00:07:54;;;;;;;3.70;2.08;;;;;;;;;;4900073;29;20028;-80
2022/08/28 00:10:21;;;;;;;12.25;2.08;;;;;;;;;;4900312;29;20109;-80
2022/08/28 00:12:48;;;;;;;4.45;2.15;;;;;;;;;;4900144;29;20025;-80
2022/08/28 00:15:16;;;;;;;3.65;2.03;;;;;;;;;;4900560;29;20044;-80
2022/08/28 00:17:43;;;;;;;4.65;2.30;;;;;;;;;;4901074;29;20080;-80
2022/08/28 00:20:10;;;;;;;9.27;2.05;;;;;;;;;;4903877;29;20055;-80
2022/08/28 00:22:37;;;;;;;4.65;2.25;;;;;;;;;;4920821;29;20028;-79
2022/08/28 00:25:05;;;;;;;4.70;2.22;;;;;;;;;;4903839;29;20092;-80
2022/08/28 00:30:16;;;;;;;6.15;2.65;;;;;;;;;;4920725;29;20039;-80
2022/08/28 00:32:42;;;;;;;7.07;2.60;;;;;;;;;;4903984;29;20375;-80
2022/08/28 00:35:08;;;;;;;5.63;2.50;;;;;;;;;;4920793;29;20524;-74
2022/08/28 00:37:35;;;;;;;8.43;2.80;;;;;;;;;;4903459;29;20127;-79
2022/08/28 00:40:02;;;;;;;10.43;2.88;;;;;;;;;;4920639;29;20478;-78
2022/08/28 00:42:28;;;;;;;10.32;2.83;;;;;;;;;;4903337;29;20031;-79
2022/08/28 00:44:54;;;;;;;18.73;3.13;;;;;;;;;;4903789;29;20044;-73
2022/08/28 00:47:25;;;;;;;7.88;3.17;;;;;;;;;;4920984;29;20517;-79
2022/08/28 00:49:52;;;;;;;5.32;2.75;;;;;;;;;;4903306;29;20076;-80
2022/08/28 00:52:19;;;;;;;9.05;2.75;;;;;;;;;;4903152;29;20146;-79
2022/08/28 00:54:51;;;;;;;9.38;2.78;;;;;;;;;;4903860;29;20038;-79
2022/08/28 00:57:19;;;;;;;7.43;2.88;;;;;;;;;;4903223;29;20087;-73
2022/08/28 00:59:45;;;;;;;8.98;3.05;;;;;;;;;;4904209;29;20039;-80
2022/08/28 01:02:12;;;;;;;8.63;2.75;;;;;;;;;;4920310;29;20028;-80
2022/08/28 01:04:38;;;;;;;9.70;3.33;;;;;;;;;;4920603;29;20430;-79
2022/08/28 01:07:09;;;;;;;6.50;2.97;;;;;;;;;;4903092;29;20032;-80
2022/08/28 01:09:37;;;;;;;4.40;2.90;;;;;;;;;;4903015;29;20493;-78
2022/08/28 01:12:23;;;;;;;5.82;2.83;;;;;;;;;;4903053;29;20039;-78
2022/08/28 01:14:50;;;;;;;5.80;3.10;;;;;;;;;;4919924;29;20068;-78
2022/08/28 01:17:17;;;;;;;11.38;3.60;;;;;;;;;;4902950;29;20047;-80
2022/08/28 01:19:47;;;;;;;10.40;3.50;;;;;;;;;;4919694;29;20389;-80
2022/08/28 01:22:16;;;;;;;12.40;3.60;;;;;;;;;;4902961;29;20503;-79
2022/08/28 01:24:44;;;;;;;11.55;4.05;;;;;;;;;;4902709;29;20039;-80
2022/08/28 01:27:10;;;;;;;12.52;3.75;;;;;;;;;;4902840;29;20059;-80
2022/08/28 01:29:37;;;;;;;9.05;3.70;;;;;;;;;;4901417;29;20086;-79
2022/08/28 01:32:04;;;;;;;6.45;3.38;;;;;;;;;;4903081;29;20063;-79
2022/08/28 01:34:31;;;;;;;8.55;3.17;;;;;;;;;;4919803;29;20032;-79
2022/08/28 01:36:57;;;;;;;8.48;3.42;;;;;;;;;;4902622;29;20056;-75
2022/08/28 01:39:25;;;;;;;5.00;2.75;;;;;;;;;;4902427;29;20111;-76
2022/08/28 01:41:51;;;;;;;9.38;3.20;;;;;;;;;;4902443;29;20035;-74
2022/08/28 01:44:23;;;;;;;10.10;3.05;;;;;;;;;;4902347;29;20062;-79
2022/08/28 01:46:50;;;;;;;8.40;3.42;;;;;;;;;;4902522;29;20067;-76
2022/08/28 01:49:17;;;;;;;9.88;3.17;;;;;;;;;;4902260;29;20075;-79
2022/08/28 01:51:43;;;;;;;6.63;3.35;;;;;;;;;;4919118;29;20147;-78
2022/08/28 01:54:10;;;;;;;11.77;3.13;;;;;;;;;;4919173;29;20051;-80
2022/08/28 01:56:37;;;;;;;5.20;2.92;;;;;;;;;;4902382;29;20127;-79
2022/08/28 01:59:04;;;;;;;7.28;3.10;;;;;;;;;;4919165;29;20541;-79
2022/08/28 02:01:31;;;;;;;7.75;2.90;;;;;;;;;;4902608;29;20028;-80
2022/08/28 02:03:57;;;;;;;6.30;3.13;;;;;;;;;;4902711;29;20038;-79
2022/08/28 02:06:24;;;;;;;5.20;3.22;;;;;;;;;;4901965;29;20352;-80
2022/08/28 02:08:54;;;;;;;6.88;3.38;;;;;;;;;;4902801;29;20088;-78
2022/08/28 02:11:22;;;;;;;7.82;3.45;;;;;;;;;;4901838;29;20122;-79
2022/08/28 02:13:49;;;;;;;11.70;3.63;;;;;;;;;;4902857;29;20076;-80
2022/08/28 02:16:15;;;;;;;13.73;3.70;;;;;;;;;;4901824;29;20043;-80
2022/08/28 02:18:41;;;;;;;6.75;3.78;;;;;;;;;;4902294;29;20438;-81
2022/08/28 02:21:08;;;;;;;8.98;3.42;;;;;;;;;;4918558;29;20032;-80
2022/08/28 02:23:35;;;;;;;11.75;3.90;;;;;;;;;;4901667;29;20028;-75
2022/08/28 02:26:02;;;;;;;7.70;3.45;;;;;;;;;;4919009;29;20036;-80
2022/08/28 02:28:28;;;;;;;7.68;3.38;;;;;;;;;;4901811;29;20462;-80
2022/08/28 02:30:54;;;;;;;4.60;2.65;;;;;;;;;;4901460;29;20490;-81
2022/08/28 02:33:21;;;;;;;10.00;3.40;;;;;;;;;;4901537;29;20080;-81
2022/08/28 02:35:48;;;;;;;6.38;3.35;;;;;;;;;;4901501;29;20504;-81
2022/08/28 02:38:14;;;;;;;8.82;3.33;;;;;;;;;;4901326;29;20035;-80
2022/08/28 02:40:40;;;;;;;7.88;3.17;;;;;;;;;;4901000;29;20036;-80
2022/08/28 02:43:07;;;;;;;5.80;3.50;;;;;;;;;;4901259;29;20035;-81
2022/08/28 02:45:33;;;;;;;12.80;3.83;;;;;;;;;;4901240;29;20071;-79
2022/08/28 02:48:00;;;;;;;8.32;3.67;;;;;;;;;;4901689;29;20438;-80
2022/08/28 02:50:27;;;;;;;8.25;4.03;;;;;;;;;;4918872;29;20032;-78
2022/08/28 02:52:53;;;;;;;7.45;3.33;;;;;;;;;;4890786;29;20044;-79
2022/08/28 02:55:19;;;;;;;7.35;3.50;;;;;;;;;;4882320;29;20029;-73
2022/08/28 02:57:47;;;;;;;10.43;3.90;;;;;;;;;;4899581;29;20025;-81
2022/08/28 03:00:15;;;;;;;5.25;2.80;;;;;;;;;;4883359;29;20033;-80
2022/08/28 03:02:44;;;;;;;8.05;3.45;;;;;;;;;;4882717;29;20036;-80
2022/08/28 03:05:11;;;;;;;11.02;4.10;;;;;;;;;;4883335;29;20406;-80
2022/08/28 03:07:37;;;;;;;8.63;3.85;;;;;;;;;;4882166;29;20394;-80
2022/08/28 03:10:03;;;;;;;8.90;4.05;;;;;;;;;;4882073;29;20060;-80
2022/08/28 03:12:29;;;;;;;7.93;3.72;;;;;;;;;;4881918;29;20029;-80
2022/08/28 03:14:56;;;;;;;9.65;3.55;;;;;;;;;;4882047;29;20029;-80
2022/08/28 03:17:22;;;;;;;6.63;3.60;;;;;;;;;;4882187;29;20037;-80
2022/08/28 03:19:49;;;;;;;6.72;3.78;;;;;;;;;;4882232;29;20025;-81
2022/08/28 03:22:16;;;;;;;6.63;3.30;;;;;;;;;;4899278;29;20037;-79
2022/08/28 03:24:43;;;;;;;6.72;3.38;;;;;;;;;;4881992;29;20127;-80
2022/08/28 03:27:10;;;;;;;7.75;3.22;;;;;;;;;;4881755;29;20513;-80
2022/08/28 03:29:36;;;;;;;9.90;3.65;;;;;;;;;;4882088;29;20024;-80
2022/08/28 03:32:02;;;;;;;8.88;3.28;;;;;;;;;;4881894;29;20107;-81
2022/08/28 03:34:28;;;;;;;7.68;3.47;;;;;;;;;;4898494;29;20051;-80
2022/08/28 03:36:54;;;;;;;5.88;3.53;;;;;;;;;;4881883;29;20397;-80
2022/08/28 03:39:21;;;;;;;5.53;3.05;;;;;;;;;;4882174;29;20021;-81
2022/08/28 03:41:47;;;;;;;10.40;3.50;;;;;;;;;;4882078;29;20525;-81
2022/08/28 03:44:14;;;;;;;7.03;3.30;;;;;;;;;;4881831;29;20412;-81
2022/08/28 03:46:40;;;;;;;6.30;3.47;;;;;;;;;;4881724;29;20154;-81
2022/08/28 03:49:06;;;;;;;7.40;3.95;;;;;;;;;;4882169;29;20029;-80
2022/08/28 03:51:33;;;;;;;6.97;3.17;;;;;;;;;;4899268;29;20032;-74
2022/08/28 03:54:00;;;;;;;8.57;3.88;;;;;;;;;;4880691;29;20045;-81
2022/08/28 03:56:28;;;;;;;11.95;3.72;;;;;;;;;;4881659;29;20020;-80
2022/08/28 03:58:56;;;;;;;5.88;3.33;;;;;;;;;;4881675;29;20111;-79
2022/08/28 04:01:22;;;;;;;7.78;3.38;;;;;;;;;;4898554;29;20025;-79
2022/08/28 04:03:49;;;;;;;6.45;3.45;;;;;;;;;;4882215;29;20489;-80
2022/08/28 04:06:15;;;;;;;9.23;3.70;;;;;;;;;;4881399;29;20438;-79
2022/08/28 04:08:41;;;;;;;8.25;3.45;;;;;;;;;;4898288;29;20493;-74
2022/08/28 04:11:08;;;;;;;7.53;3.58;;;;;;;;;;4898741;29;20034;-79
2022/08/28 04:13:35;;;;;;;6.80;3.95;;;;;;;;;;4881433;29;20029;-80
2022/08/28 04:16:05;;;;;;;9.05;3.50;;;;;;;;;;4881380;29;20124;-81
2022/08/28 04:18:31;;;;;;;8.27;3.10;;;;;;;;;;4881497;29;20382;-80
2022/08/28 04:21:17;;;;;;;7.13;4.13;;;;;;;;;;4881488;29;20036;-80
2022/08/28 04:23:44;;;;;;;11.60;3.60;;;;;;;;;;4881528;29;20084;-80
2022/08/28 04:26:13;;;;;;;12.55;4.00;;;;;;;;;;4881129;29;20063;-80
2022/08/28 04:28:39;;;;;;;7.45;3.63;;;;;;;;;;4881348;29;20458;-80
2022/08/28 04:31:09;;;;;;;9.70;4.20;;;;;;;;;;4898074;29;20390;-80
2022/08/28 04:33:35;;;;;;;7.85;3.58;;;;;;;;;;4881092;29;20039;-80
2022/08/28 04:36:03;;;;;;;7.03;3.95;;;;;;;;;;4881362;29;20033;-80
2022/08/28 04:38:29;;;;;;;6.40;4.07;;;;;;;;;;4881972;29;20029;-79
2022/08/28 04:40:56;;;;;;;8.57;3.55;;;;;;;;;;4898712;29;20020;-80
2022/08/28 04:43:22;;;;;;;6.82;3.78;;;;;;;;;;4881151;29;20442;-80
2022/08/28 04:45:48;;;;;;;7.32;4.00;;;;;;;;;;4881177;29;20044;-74
2022/08/28 04:48:14;;;;;;;7.78;3.35;;;;;;;;;;4881325;29;20060;-80
2022/08/28 04:50:45;;;;;;;7.38;3.42;;;;;;;;;;4881129;29;20047;-81
2022/08/28 04:53:12;;;;;;;10.18;3.90;;;;;;;;;;4893369;29;20052;-80
2022/08/28 04:55:42;;;;;;;6.78;3.20;;;;;;;;;;4899751;29;20032;-81
2022/08/28 04:58:09;;;;;;;12.73;3.75;;;;;;;;;;4899938;29;20466;-81
2022/08/28 05:00:37;;;;;;;10.02;3.67;;;;;;;;;;4900436;29;20393;-80
2022/08/28 05:03:03;;;;;;;9.43;3.35;;;;;;;;;;4899605;29;20076;-80
2022/08/28 05:05:35;;;;;;;7.55;3.25;;;;;;;;;;4902574;29;20040;-81
2022/08/28 05:08:01;;;;;;;8.73;3.70;;;;;;;;;;4920077;29;20500;-80
2022/08/28 05:10:28;;;;;;;8.35;3.45;;;;;;;;;;4903258;29;20504;-80
2022/08/28 05:12:54;;;;;;;7.75;3.40;;;;;;;;;;4920547;29;20414;-79
2022/08/28 05:15:20;;;;;;;7.65;3.28;;;;;;;;;;4904043;29;20028;-80
2022/08/28 05:17:47;;;;;;;7.25;3.42;;;;;;;;;;4903297;29;20035;-81
2022/08/28 05:20:13;;;;;;;9.75;3.60;;;;;;;;;;4903030;29;20048;-80
2022/08/28 05:22:39;;;;;;;8.32;4.70;;;;;;;;;;4903110;29;20028;-80
2022/08/28 05:25:05;;;;;;;8.10;3.00;;;;;;;;;;4902876;29;20036;-81
2022/08/28 05:27:31;;;;;;;6.10;2.95;;;;;;;;;;4923028;29;20031;-80
2022/08/28 05:29:57;;;;;;;6.47;2.85;;;;;;;;;;4919618;29;20510;-81
2022/08/28 05:32:24;;;;;;;5.63;2.58;;;;;;;;;;4920978;29;20039;-80
2022/08/28 05:34:50;;;;;;;5.60;2.90;;;;;;;;;;4906432;29;20055;-74
2022/08/28 05:37:16;;;;;;;6.15;3.28;;;;;;;;;;4926835;29;20032;-76
2022/08/28 05:39:42;;;;;;;8.30;3.90;;;;;;;;;;4927336;29;20032;-75
2022/08/28 05:42:08;;;;;;;4.63;3.15;;;;;;;;;;4913065;29;20028;-81
2022/08/28 05:44:34;;;;;;;7.53;3.67;;;;;;;;;;4928091;29;20031;-79
2022/08/28 05:47:01;;;;;;;4.97;3.08;;;;;;;;;;4923203;29;20032;-79
2022/08/28 05:49:27;;;;;;;6.28;2.75;;;;;;;;;;4918651;29;20080;-82
2022/08/28 05:51:54;;;;;;;4.70;2.67;;;;;;;;;;4932944;29;20043;-79
2022/08/28 05:54:20;;;;;;;10.80;3.30;;;;;;;;;;4927613;29;20030;-81
2022/08/28 05:56:46;;;;;;;4.05;2.80;;;;;;;;;;4910939;29;20036;-79
2022/08/28 05:59:14;;;;;;;5.53;3.00;;;;;;;;;;4927933;29;20123;-80
2022/08/28 06:01:42;;;;;;;7.28;2.95;;;;;;;;;;4902550;29;20122;-80
2022/08/28 06:04:10;;;;;;;5.43;3.17;;;;;;;;;;4918346;29;20032;-80
2022/08/28 06:06:38;;;;;;;6.70;3.00;;;;;;;;;;4920822;29;20103;-80
2022/08/28 06:09:09;;;;;;;3.65;2.42;;;;;;;;;;4920778;29;20057;-80
2022/08/28 06:11:37;;;;;;;5.47;2.88;;;;;;;;;;4920910;29;20035;-80
2022/08/28 06:14:08;;;;;;;10.18;3.30;;;;;;;;;;4920592;29;20147;-77
2022/08/28 06:16:35;;;;;;;5.88;2.97;;;;;;;;;;4927301;29;20540;-79
2022/08/28 06:19:01;;;;;;;7.88;2.75;;;;;;;;;;4933386;29;20054;-83
2022/08/28 06:21:27;;;;;;;4.53;2.97;;;;;;;;;;4915013;29;20027;-79
2022/08/28 06:23:54;;;;;;;6.57;2.95;;;;;;;;;;4918023;29;20043;-76
2022/08/28 06:26:20;;;;;;;6.22;3.35;;;;;;;;;;4902265;29;20048;-81
2022/08/28 06:28:47;;;;;;;6.30;3.00;;;;;;;;;;4898206;29;20371;-81
2022/08/28 06:31:13;;;;;;;5.90;2.88;;;;;;;;;;4906495;29;20024;-76
2022/08/28 06:33:41;;;;;;;6.13;3.05;;;;;;;;;;4909411;29;20063;-77
2022/08/28 06:36:07;;;;;;;5.30;2.78;;;;;;;;;;4929072;29;20103;-77
2022/08/28 06:38:33;;;;;;;5.13;2.40;;;;;;;;;;4909556;29;20031;-79
2022/08/28 06:40:59;;;;;;;5.05;2.22;;;;;;;;;;4924958;29;20478;-82
2022/08/28 06:43:27;;;;;;;7.03;2.40;;;;;;;;;;4906371;29;20067;-76
2022/08/28 06:45:54;;;;;;;7.13;2.35;;;;;;;;;;4918172;29;20071;-81
2022/08/28 06:48:22;;;;;;;4.13;2.10;;;;;;;;;;4901269;29;20477;-78
2022/08/28 06:50:49;;;;;;;5.60;2.75;;;;;;;;;;4903017;29;20123;-76
2022/08/28 06:53:19;;;;;;;8.45;2.63;;;;;;;;;;4906474;29;20060;-89
2022/08/28 06:55:55;;;;;;;4.40;2.47;;;;;;;;;;4919969;29;20114;-87
2022/08/28 06:58:21;;;;;;;3.58;2.05;;;;;;;;;;4909117;29;20032;-81
2022/08/28 07:00:48;;;;;;;6.55;2.90;;;;;;;;;;4891764;29;20028;-85
2022/08/28 07:03:14;;;;;;;3.85;2.13;;;;;;;;;;4908109;29;20192;-81
2022/08/28 07:05:40;;;;;;;3.15;2.05;;;;;;;;;;4901939;29;20040;-85
2022/08/28 07:08:06;;;;;;;5.68;2.22;;;;;;;;;;4919155;29;20027;-81
2022/08/28 07:10:32;;;;;;;3.15;1.83;;;;;;;;;;4928424;29;20035;-84
2022/08/28 07:13:03;;;;;;;4.32;1.75;;;;;;;;;;4917242;29;20023;-87
2022/08/28 07:15:29;;;;;;;9.52;2.00;;;;;;;;;;4921189;29;20028;-82
2022/08/28 07:17:55;;;;;;;4.07;1.90;;;;;;;;;;4919923;29;20058;-76
2022/08/28 07:20:21;;;;;;;3.97;1.75;;;;;;;;;;4919624;29;20031;-83
2022/08/28 07:22:51;;;;;;;6.90;2.28;;;;;;;;;;4914328;29;20032;-77
2022/08/28 07:25:17;;;;;;;2.78;1.67;;;;;;;;;;4919671;29;20034;-81
2022/08/28 07:27:43;;;;;;;3.13;1.60;;;;;;;;;;4919809;29;20114;-84
2022/08/28 07:30:11;;;;;;;4.32;1.60;;;;;;;;;;4937316;29;20055;-79
2022/08/28 07:32:38;;;;;;;4.40;1.80;;;;;;;;;;4919841;29;20079;-77
2022/08/28 07:35:04;;;;;;;4.43;1.77;;;;;;;;;;4920260;29;20036;-85
2022/08/28 07:37:30;;;;;;;6.15;1.92;;;;;;;;;;4936904;29;20075;-84
2022/08/28 07:39:56;;;;;;;2.95;1.77;;;;;;;;;;4934337;29;20034;-77
2022/08/28 07:45:15;;;;;;;4.75;1.60;;;;;;;;;;4908206;29;20054;-76
2022/08/28 07:47:41;;;;;;;2.63;1.52;;;;;;;;;;4916027;29;20043;-78
2022/08/28 07:50:07;;;;;;;3.25;1.95;;;;;;;;;;4916201;29;20028;-76
2022/08/28 07:52:37;;;;;;;5.28;1.77;;;;;;;;;;4917099;29;20056;-91
2022/08/28 07:55:04;;;;;;;6.10;1.75;;;;;;;;;;4915891;29;20123;-75
2022/08/28 07:57:30;;;;;;;6.75;1.98;;;;;;;;;;4916151;29;20028;-76
2022/08/28 07:59:58;;;;;;;3.70;2.10;;;;;;;;;;4917263;29;20034;-83
2022/08/28 08:02:24;;;;;;;2.65;1.40;;;;;;;;;;4915951;29;20076;-83
2022/08/28 08:04:51;;;;;;;8.48;1.90;;;;;;;;;;4915662;29;20024;-83
2022/08/28 08:07:18;;;;;;;5.22;1.40;;;;;;;;;;4920229;29;20028;-80
2022/08/28 08:09:45;;;;;;;4.00;1.60;;;;;;;;;;4931791;29;20122;-76
2022/08/28 08:12:12;;;;;;;4.60;1.80;;;;;;;;;;4918329;29;20064;-80
2022/08/28 08:14:38;;;;;;;5.30;1.60;;;;;;;;;;4903127;29;20389;-78
2022/08/28 08:17:05;;;;;;;5.15;1.52;;;;;;;;;;4918939;29;20035;-75
2022/08/28 08:19:31;;;;;;;3.13;1.42;;;;;;;;;;4935969;29;20031;-76
2022/08/28 08:21:57;;;;;;;9.48;1.70;;;;;;;;;;4935975;29;20381;-75
2022/08/28 08:24:25;;;;;;;4.40;1.42;;;;;;;;;;4923203;29;20028;-82
2022/08/28 08:26:52;;;;;;;2.92;1.63;;;;;;;;;;4917207;29;20043;-83
2022/08/28 08:29:19;;;;;;;2.13;1.40;;;;;;;;;;4917035;29;20027;-76
2022/08/28 08:31:45;;;;;;;3.95;1.48;;;;;;;;;;4917010;29;20464;-77
2022/08/28 08:34:12;;;;;;;6.32;1.35;;;;;;;;;;4917423;29;20459;-77
2022/08/28 08:36:38;;;;;;;3.65;1.65;;;;;;;;;;4917343;29;20032;-80
2022/08/28 08:39:06;;;;;;;2.85;1.70;;;;;;;;;;4918703;29;20463;-78
2022/08/28 08:41:33;;;;;;;6.03;2.00;;;;;;;;;;4916927;29;20027;-81
2022/08/28 08:44:03;;;;;;;4.28;1.60;;;;;;;;;;4939429;29;20401;-81
2022/08/28 08:46:52;;;;;;;3.25;1.58;;;;;;;;;;4922207;29;20038;-83
2022/08/28 08:49:20;;;;;;;7.57;1.40;;;;;;;;;;4913180;29;20032;-83
2022/08/28 08:51:47;;;;;;;4.28;1.40;;;;;;;;;;4938971;29;20040;-77
2022/08/28 08:54:15;;;;;;;2.60;1.30;;;;;;;;;;4922073;29;20031;-76
2022/08/28 08:56:42;;;;;;;3.10;1.80;;;;;;;;;;4929487;29;20024;-76
2022/08/28 08:59:14;;;;;;;3.10;1.65;;;;;;;;;;4902888;29;20032;-84
2022/08/28 09:01:40;;;;;;;3.27;1.30;;;;;;;;;;4920384;29;20474;-82
2022/08/28 09:04:13;;;;;;;3.72;1.60;;;;;;;;;;4902889;29;20486;-78
2022/08/28 09:06:39;;;;;;;4.85;1.45;;;;;;;;;;4902881;29;20434;-83
2022/08/28 09:09:08;;;;;;;3.95;1.77;;;;;;;;;;4903149;29;20035;-81
2022/08/28 09:11:53;;;;;;;4.10;1.38;;;;;;;;;;4902318;29;20036;-79
2022/08/28 09:14:24;;;;;;;3.53;1.10;;;;;;;;;;4918331;29;20095;-85
2022/08/28 09:16:51;;;;;;;3.58;1.52;;;;;;;;;;4903356;29;20545;-85
2022/08/28 09:19:20;;;;;;;2.70;1.30;;;;;;;;;;4920130;29;20031;-85
2022/08/28 09:21:47;;;;;;;3.92;1.50;;;;;;;;;;4919674;29;20055;-79
2022/08/28 09:24:20;;;;;;;4.80;1.30;;;;;;;;;;4919667;29;20028;-79
2022/08/28 09:27:00;;;;;;;5.75;1.30;;;;;;;;;;4918514;29;20070;-79
2022/08/28 09:29:32;;;;;;;4.25;1.40;;;;;;;;;;4918535;29;20088;-79
2022/08/28 09:32:16;;;;;;;2.90;1.08;;;;;;;;;;4918267;29;20512;-79
2022/08/28 09:34:58;;;;;;;3.53;1.38;;;;;;;;;;4919627;29;20028;-79
2022/08/28 09:37:25;;;;;;;7.43;1.70;;;;;;;;;;4918693;29;20028;-77
2022/08/28 09:40:12;;;;;;;2.92;1.35;;;;;;;;;;4922459;29;20032;-83
2022/08/28 09:45:24;;;;;;;4.22;1.70;;;;;;;;;;4938724;29;20042;-82
2022/08/28 09:47:50;;;;;;;2.60;1.30;;;;;;;;;;4921345;29;20032;-82
2022/08/28 09:50:23;;;;;;;6.10;1.58;;;;;;;;;;4937410;29;20102;-83
2022/08/28 09:52:49;;;;;;;4.32;1.60;;;;;;;;;;4920894;29;20042;-83
2022/08/28 09:55:34;;;;;;;5.40;1.02;;;;;;;;;;4921566;29;20035;-84
2022/08/28 09:58:00;;;;;;;3.10;1.23;;;;;;;;;;4920983;29;20034;-81
2022/08/28 10:00:30;;;;;;;2.80;1.23;;;;;;;;;;4938572;29;20031;-76
2022/08/28 10:02:57;;;;;;;4.68;1.40;;;;;;;;;;4921008;29;20034;-82
2022/08/28 10:05:43;;;;;;;3.17;1.38;;;;;;;;;;4935272;29;20079;-80
2022/08/28 10:08:25;;;;;;;3.08;1.38;;;;;;;;;;4908532;29;20087;-75
2022/08/28 10:10:55;;;;;;;3.85;1.42;;;;;;;;;;4906865;29;20042;-81
2022/08/28 10:13:33;;;;;;;4.55;1.55;;;;;;;;;;4930826;29;20032;-80
2022/08/28 10:16:18;;;;;;;4.38;1.55;;;;;;;;;;4917545;29;20032;-81
2022/08/28 10:18:51;;;;;;;3.03;1.20;;;;;;;;;;4917461;29;20464;-81
2022/08/28 10:21:21;;;;;;;3.40;1.10;;;;;;;;;;4917539;29;20020;-81
2022/08/28 10:23:53;;;;;;;3.90;1.42;;;;;;;;;;4917369;29;20549;-73
2022/08/28 10:26:19;;;;;;;4.07;1.33;;;;;;;;;;4917237;29;20036;-81
2022/08/28 10:28:54;;;;;;;2.78;1.30;;;;;;;;;;4917578;29;20103;-83
2022/08/28 10:31:23;;;;;;;3.58;1.52;;;;;;;;;;4917231;29;20486;-80
2022/08/28 10:34:06;;;;;;;2.10;1.30;;;;;;;;;;4919480;29;20039;-79
2022/08/28 10:36:34;;;;;;;3.97;1.48;;;;;;;;;;4916001;29;20055;-81
2022/08/28 10:39:25;;;;;;;2.38;1.40;;;;;;;;;;4937277;29;20111;-75
2022/08/28 10:41:56;;;;;;;3.55;1.40;;;;;;;;;;4920358;29;20366;-82
2022/08/28 10:44:38;;;;;;;3.20;1.77;;;;;;;;;;4920214;29;20382;-76
2022/08/28 10:47:05;;;;;;;3.30;1.67;;;;;;;;;;4910652;29;20135;-81
2022/08/28 10:49:34;;;;;;;4.82;1.40;;;;;;;;;;4901265;29;20035;-78
2022/08/28 10:52:03;;;;;;;2.50;1.30;;;;;;;;;;4897874;29;20041;-76
2022/08/28 10:54:31;;;;;;;3.92;1.30;;;;;;;;;;4900006;29;20039;-76
2022/08/28 10:57:10;;;;;;;4.00;1.35;;;;;;;;;;4882489;29;20340;-78
2022/08/28 10:59:37;;;;;;;3.80;1.10;;;;;;;;;;4899400;29;20371;-83
2022/08/28 11:02:05;;;;;;;2.55;1.10;;;;;;;;;;4882160;29;20044;-74
2022/08/28 11:04:31;;;;;;;3.85;1.33;;;;;;;;;;4882578;29;20033;-82
2022/08/28 11:07:04;;;;;;;3.25;1.20;;;;;;;;;;4899054;29;20084;-80
2022/08/28 11:09:32;;;;;;;3.60;1.23;;;;;;;;;;4882297;29;20032;-76
2022/08/28 11:12:00;;;;;;;3.22;1.45;;;;;;;;;;4882262;29;20032;-82
2022/08/28 11:14:29;;;;;;;4.63;1.35;;;;;;;;;;4882069;29;20063;-84
2022/08/28 11:17:10;;;;;;;3.50;1.67;;;;;;;;;;4882411;29;20485;-83
2022/08/28 11:19:55;;;;;;;3.67;1.70;;;;;;;;;;4882508;29;20029;-83
2022/08/28 11:22:28;;;;;;;1.95;1.38;;;;;;;;;;4898931;29;20043;-81
2022/08/28 11:24:58;;;;;;;4.68;1.60;;;;;;;;;;4881891;29;20032;-77
2022/08/28 11:27:30;;;;;;;4.75;1.60;;;;;;;;;;4881970;29;20035;-77
2022/08/28 11:30:02;;;;;;;8.10;2.00;;;;;;;;;;4881943;29;20035;-77
2022/08/28 11:32:31;;;;;;;3.55;1.73;;;;;;;;;;4882560;29;20040;-78
2022/08/28 11:35:03;;;;;;;8.13;1.85;;;;;;;;;;4881943;29;20036;-78
2022/08/28 11:37:39;;;;;;;4.93;2.03;;;;;;;;;;4881154;29;20025;-77
2022/08/28 11:40:14;;;;;;;4.50;1.83;;;;;;;;;;4878524;29;20069;-79
2022/08/28 11:42:40;;;;;;;3.03;1.80;;;;;;;;;;4890978;29;20048;-77
2022/08/28 11:45:07;;;;;;;3.97;1.92;;;;;;;;;;4910424;29;20032;-76
2022/08/28 11:47:36;;;;;;;3.03;1.67;;;;;;;;;;4901377;29;20065;-76
2022/08/28 11:50:12;;;;;;;4.55;2.25;;;;;;;;;;4881857;29;20553;-76
2022/08/28 11:52:38;;;;;;;6.22;1.80;;;;;;;;;;4907690;29;20497;-75
2022/08/28 11:55:20;;;;;;;4.57;1.60;;;;;;;;;;4919919;29;20485;-76
2022/08/28 11:57:53;;;;;;;4.20;1.83;;;;;;;;;;4917047;29;20026;-75
2022/08/28 12:00:28;;;;;;;3.80;1.63;;;;;;;;;;4930579;29;20028;-76
2022/08/28 12:03:06;;;;;;;3.47;1.85;;;;;;;;;;4919215;29;20448;-78
2022/08/28 12:05:32;;;;;;;5.82;1.50;;;;;;;;;;4936071;29;20071;-81
2022/08/28 12:08:01;;;;;;;4.15;1.70;;;;;;;;;;4927418;29;20024;-76
2022/08/28 12:10:28;;;;;;;4.80;1.60;;;;;;;;;;4925990;29;20031;-76
2022/08/28 12:12:58;;;;;;;2.88;1.70;;;;;;;;;;4927804;29;20185;-78
2022/08/28 12:15:28;;;;;;;2.67;1.40;;;;;;;;;;4924289;29;20501;-77
2022/08/28 12:17:58;;;;;;;3.67;1.90;;;;;;;;;;4922940;29;20036;-88
2022/08/28 12:20:32;;;;;;;4.30;1.52;;;;;;;;;;4925515;29;20064;-88
2022/08/28 12:23:00;;;;;;;7.55;2.10;;;;;;;;;;4921099;29;20028;-90
2022/08/28 12:25:29;;;;;;;2.90;1.55;;;;;;;;;;4920842;29;20028;-89
2022/08/28 12:28:04;;;;;;;2.95;1.60;;;;;;;;;;4920589;29;20024;-89
2022/08/28 12:30:33;;;;;;;4.63;1.65;;;;;;;;;;4921108;29;20025;-91
2022/08/28 12:33:05;;;;;;;2.90;1.58;;;;;;;;;;4920944;29;20052;-91
2022/08/28 12:35:31;;;;;;;3.40;1.80;;;;;;;;;;4921234;29;20036;-92
2022/08/28 12:38:02;;;;;;;3.13;1.60;;;;;;;;;;4921283;29;20114;-93
2022/08/28 12:40:49;;;;;;;2.65;1.55;;;;;;;;;;4920688;29;20028;-93
2022/08/28 12:43:19;;;;;;;3.53;1.42;;;;;;;;;;4922017;29;20028;-91
2022/08/28 12:45:50;;;;;;;4.47;1.80;;;;;;;;;;4920767;29;20150;-91
2022/08/28 12:48:25;;;;;;;5.95;1.67;;;;;;;;;;4926690;29;20131;-75
2022/08/28 12:50:58;;;;;;;4.32;1.40;;;;;;;;;;4920689;29;20028;-84
2022/08/28 12:53:25;;;;;;;2.45;1.63;;;;;;;;;;4919672;29;20063;-92
2022/08/28 12:55:51;;;;;;;3.95;1.90;;;;;;;;;;4904556;29;20111;-76
2022/08/28 12:58:33;;;;;;;3.22;1.65;;;;;;;;;;4921637;29;20111;-91
2022/08/28 13:10:31;;;;;;;6.28;1.80;;;;;;;;;;4940373;29;20066;-92
2022/08/28 13:13:06;;;;;;;4.05;1.90;;;;;;;;;;4922957;29;20123;-90
2022/08/28 13:18:47;;;;;;;4.30;1.95;;;;;;;;;;4941196;29;20102;-90
2022/08/28 13:21:27;;;;;;;4.30;2.40;;;;;;;;;;4917891;29;20139;-90
2022/08/28 13:30:32;;;;;;;5.05;2.42;;;;;;;;;;4900449;29;20073;-92
2022/08/28 13:33:17;;;;;;;3.90;2.30;;;;;;;;;;4940007;23;20051;-91
2022/08/28 13:35:43;;;;;;;3.25;2.33;;;;;;;;;;4922640;29;20035;-75
2022/08/28 13:38:18;;;;;;;7.97;2.60;;;;;;;;;;4939909;29;20434;-89
2022/08/28 13:40:52;;;;;;;4.80;2.72;;;;;;;;;;4924383;29;20127;-91
2022/08/28 13:43:24;;;;;;;5.18;2.50;;;;;;;;;;4924270;29;20040;-90
2022/08/28 13:46:03;;;;;;;6.38;2.67;;;;;;;;;;4925370;29;20044;-93
2022/08/28 13:48:29;;;;;;;5.32;2.80;;;;;;;;;;4922909;29;20035;-95
2022/08/28 13:51:04;;;;;;;4.82;2.55;;;;;;;;;;4925341;29;20031;-91
2022/08/28 13:53:30;;;;;;;2.75;2.03;;;;;;;;;;4941067;29;20054;-91
2022/08/28 13:55:58;;;;;;;7.50;2.45;;;;;;;;;;4923195;29;20024;-90
2022/08/28 13:58:31;;;;;;;4.88;2.40;;;;;;;;;;4923550;29;20135;-91
2022/08/28 14:00:57;;;;;;;3.85;2.40;;;;;;;;;;4923059;29;20027;-91
2022/08/28 14:03:40;;;;;;;4.20;2.03;;;;;;;;;;4928268;29;20032;-93
2022/08/28 14:06:19;;;;;;;6.30;2.20;;;;;;;;;;4923230;29;20067;-93
2022/08/28 14:21:00;;;;;;;4.43;2.40;;;;;;;;;;4940863;29;20046;-90
2022/08/28 14:23:26;;;;;;;4.13;2.40;;;;;;;;;;4922164;29;20031;-92
2022/08/28 14:25:52;;;;;;;4.32;2.60;;;;;;;;;;4922405;29;20043;-92
2022/08/28 14:28:23;;;;;;;4.10;2.45;;;;;;;;;;4921222;29;20031;-93
2022/08/28 14:30:55;;;;;;;5.05;2.55;;;;;;;;;;4922516;29;20032;-93
2022/08/28 14:33:33;;;;;;;5.40;2.57;;;;;;;;;;4928903;29;20043;-91
2022/08/28 14:36:24;;;;;;;6.38;2.70;;;;;;;;;;4899176;29;20082;-90
2022/08/28 14:38:57;;;;;;;4.95;2.58;;;;;;;;;;4883702;29;20123;-91
2022/08/28 14:41:29;;;;;;;4.18;2.75;;;;;;;;;;4885144;29;20028;-91
2022/08/28 14:44:01;;;;;;;5.30;3.00;;;;;;;;;;4885371;29;20039;-94
2022/08/28 14:46:59;;;;;;;8.27;2.78;;;;;;;;;;4885642;29;20060;-92
2022/08/28 14:49:28;;;;;;;6.32;2.72;;;;;;;;;;4884473;29;20047;-93
2022/08/28 14:52:03;;;;;;;4.13;2.45;;;;;;;;;;4884181;29;20142;-94
2022/08/28 14:54:30;;;;;;;6.20;2.60;;;;;;;;;;4883584;29;20036;-95
2022/08/28 14:56:56;;;;;;;4.50;2.47;;;;;;;;;;4883997;29;20513;-91
2022/08/28 14:59:26;;;;;;;3.75;2.53;;;;;;;;;;4884541;29;20036;-91
2022/08/28 15:01:54;;;;;;;4.72;2.78;;;;;;;;;;4921783;29;20027;-93
2022/08/28 15:04:22;;;;;;;5.20;2.47;;;;;;;;;;4934299;29;20034;-91
2022/08/28 15:06:49;;;;;;;4.30;2.65;;;;;;;;;;4921957;29;20040;-93
2022/08/28 15:09:16;;;;;;;5.40;2.97;;;;;;;;;;4920857;29;20024;-90
2022/08/28 15:11:47;;;;;;;6.15;2.80;;;;;;;;;;4921110;29;20083;-93
2022/08/28 15:14:14;;;;;;;3.65;2.60;;;;;;;;;;4921103;29;20528;-91
2022/08/28 15:16:42;;;;;;;4.82;2.92;;;;;;;;;;4920772;29;20028;-92
2022/08/28 15:19:12;;;;;;;4.63;2.70;;;;;;;;;;4921428;29;20123;-92
2022/08/28 15:21:50;;;;;;;4.60;2.60;;;;;;;;;;4921512;29;20070;-95
2022/08/28 15:24:29;;;;;;;4.05;2.42;;;;;;;;;;4921343;29;20059;-95
2022/08/28 15:27:03;;;;;;;6.47;3.08;;;;;;;;;;4919573;29;20044;-95
2022/08/28 15:32:38;;;;;;;6.63;2.80;;;;;;;;;;4901838;29;20027;-89
2022/08/28 15:35:07;;;;;;;5.05;3.00;;;;;;;;;;4890386;29;20119;-90
2022/08/28 15:37:43;;;;;;;5.03;2.97;;;;;;;;;;4881969;29;20044;-89